createdAt,value
2019-05-18T00:01:10.124Z,15.2
2019-05-18T00:06:20.112Z,15
2019-05-18T00:11:25.077Z,14.9
2019-05-18T00:16:30.042Z,15.2
2019-05-18T00:21:35.047Z,15.2
2019-05-18T00:26:40.042Z,15.1
2019-05-18T00:31:50.375Z,14.8
2019-05-18T00:37:00.063Z,14.8
2019-05-18T00:42:05.034Z,14.7
2019-05-18T00:47:10.032Z,14.6
2019-05-18T00:52:15.042Z,14.6
2019-05-18T00:57:20.070Z,14.4
2019-05-18T01:02:30.077Z,14.3
2019-05-18T01:07:40.046Z,14.3
2019-05-18T01:12:45.035Z,14.2
2019-05-18T01:17:57.165Z,14.1
2019-05-18T01:19:03.374Z,14.1
2019-05-18T01:22:55.075Z,14.1
2019-05-18T01:28:00.060Z,14.1
2019-05-18T01:33:05.033Z,14
2019-05-18T01:38:15.010Z,14
2019-05-18T01:43:25.031Z,14
2019-05-18T01:48:30.001Z,14
2019-05-18T01:58:30.178Z,13.8
2019-05-18T02:08:30.517Z,13.8
2019-05-18T02:13:35.522Z,13.7
2019-05-18T02:18:40.621Z,13.7
2019-05-18T02:23:50.516Z,13.6
2019-05-18T02:29:00.477Z,13.7
2019-05-18T02:34:05.696Z,13.7
2019-05-18T02:39:10.486Z,13.6
2019-05-18T02:44:15.481Z,13.5
2019-05-18T02:49:20.480Z,13.3
2019-05-18T02:54:25.461Z,13.4
2019-05-18T02:59:30.457Z,13.4
2019-05-18T03:04:35.501Z,13.4
2019-05-18T03:09:40.477Z,13.4
2019-05-18T03:14:45.465Z,13.4
2019-05-18T03:19:50.446Z,13.4
2019-05-18T03:24:55.458Z,13.3
2019-05-18T03:30:00.456Z,13.3
2019-05-18T03:35:10.442Z,13.5
2019-05-18T03:40:20.434Z,13.4
2019-05-18T03:45:25.401Z,13.6
2019-05-18T03:50:30.485Z,13.8
2019-05-18T03:55:35.457Z,14
2019-05-18T04:00:40.415Z,14.3
2019-05-18T04:05:50.415Z,15.2
2019-05-18T04:11:00.511Z,16.1
2019-05-18T04:16:05.458Z,16.3
2019-05-18T04:21:10.425Z,15.8
2019-05-18T04:26:15.420Z,16.1
2019-05-18T04:31:20.397Z,16
2019-05-18T04:36:30.611Z,15.9
2019-05-18T04:41:40.414Z,16.1
2019-05-18T04:46:45.377Z,15.9
2019-05-18T04:51:50.411Z,16.2
2019-05-18T04:56:55.407Z,16.4
2019-05-18T05:02:00.394Z,16.6
2019-05-18T05:07:10.419Z,16.7
2019-05-18T05:12:20.406Z,16.4
2019-05-18T05:17:25.365Z,17.2
2019-05-18T05:27:25.503Z,18
2019-05-18T05:32:30.549Z,18.1
2019-05-18T05:37:35.550Z,17.7
2019-05-18T05:42:45.491Z,18.3
2019-05-18T05:47:55.506Z,18.1
2019-05-18T05:53:00.526Z,18.2
2019-05-18T05:58:05.465Z,18.1
2019-05-18T06:03:10.505Z,18.5
2019-05-18T06:08:15.514Z,18.8
2019-05-18T06:13:35.493Z,19.2
2019-05-18T06:18:50.490Z,19
2019-05-18T06:24:00.560Z,19.3
2019-05-18T06:34:05.673Z,20.1
2019-05-18T06:39:10.890Z,20
2019-05-18T06:49:10.886Z,21.4
2019-05-18T06:54:15.945Z,20.7
2019-05-18T06:59:20.917Z,20.9
2019-05-18T07:04:30.929Z,21.9
2019-05-18T07:09:40.927Z,22.1
2019-05-18T07:14:45.895Z,22.9
2019-05-18T07:19:50.873Z,21.6
2019-05-18T07:24:55.874Z,22.5
2019-05-18T07:40:01.126Z,22
2019-05-18T07:45:06.167Z,21.6
2019-05-18T07:50:11.166Z,22.3
2019-05-18T07:55:21.193Z,21.5
2019-05-18T08:00:31.138Z,21.6
2019-05-18T08:05:36.159Z,21.7
2019-05-18T08:10:43.555Z,21.4
2019-05-18T08:15:46.136Z,21
2019-05-18T08:20:51.109Z,21
2019-05-18T08:26:01.073Z,21
2019-05-18T08:31:11.133Z,21.4
2019-05-18T08:36:16.175Z,21.5
2019-05-18T08:41:21.098Z,21
2019-05-18T08:46:26.376Z,21.3
2019-05-18T08:51:31.205Z,21.4
2019-05-18T08:56:41.090Z,21.2
2019-05-18T09:01:51.145Z,21.2
2019-05-18T09:06:56.105Z,21.2
2019-05-18T09:12:01.120Z,21.5
2019-05-18T09:17:06.145Z,21.3
2019-05-18T09:22:22.431Z,21.7
2019-05-18T09:23:23.431Z,21.7
2019-05-18T09:27:21.152Z,21.8
2019-05-18T09:32:31.158Z,22.2
2019-05-18T09:37:36.118Z,22.8
2019-05-18T09:42:41.106Z,22.2
2019-05-18T09:47:46.054Z,22.5
2019-05-18T09:52:51.117Z,22.9
2019-05-18T09:58:01.067Z,22.8
2019-05-18T10:03:11.082Z,23
2019-05-18T10:08:16.127Z,22.5
2019-05-18T10:13:21.123Z,22.8
2019-05-18T10:18:26.111Z,23.2
2019-05-18T10:23:31.124Z,23.1
2019-05-18T10:28:41.061Z,23.1
2019-05-18T10:38:46.396Z,23.4
2019-05-18T10:43:51.181Z,23.2
2019-05-18T10:48:56.250Z,23.4
2019-05-18T10:54:06.185Z,24
2019-05-18T10:59:16.149Z,24
2019-05-18T11:04:21.198Z,23.8
2019-05-18T11:09:26.178Z,23.9
2019-05-18T11:14:31.265Z,23.5
2019-05-18T11:19:36.202Z,23.8
2019-05-18T11:24:46.213Z,23.9
2019-05-18T11:29:56.183Z,23.9
2019-05-18T11:35:01.138Z,24.8
2019-05-18T11:40:06.206Z,25.4
2019-05-18T11:45:11.241Z,25.2
2019-05-18T11:50:16.221Z,26
2019-05-18T11:55:26.192Z,25.1
2019-05-18T12:00:36.215Z,25.1
2019-05-18T12:05:41.125Z,25.3
2019-05-18T12:10:46.178Z,24.6
2019-05-18T12:15:51.174Z,25.5
2019-05-18T12:20:56.183Z,25.5
2019-05-18T12:26:01.152Z,25.8
2019-05-18T12:36:01.414Z,25.3
2019-05-18T12:41:06.730Z,24.7
2019-05-18T12:46:11.462Z,24.7
2019-05-18T12:51:21.504Z,24.7
2019-05-18T12:56:31.411Z,25.2
2019-05-18T13:01:36.472Z,25.5
2019-05-18T13:06:41.473Z,25.7
2019-05-18T13:11:46.458Z,26.1
2019-05-18T13:16:51.399Z,26.3
2019-05-18T13:22:01.561Z,26.4
2019-05-18T13:27:11.444Z,25.8
2019-05-18T13:32:16.431Z,26.2
2019-05-18T13:37:21.527Z,26.5
2019-05-18T13:42:26.436Z,26.1
2019-05-18T13:47:31.415Z,26.3
2019-05-18T13:52:41.416Z,26.2
2019-05-18T13:57:51.462Z,25.9
2019-05-18T14:02:56.439Z,25.9
2019-05-18T14:08:01.463Z,26.1
2019-05-18T14:13:06.468Z,26.2
2019-05-18T14:18:11.393Z,25.5
2019-05-18T14:23:21.478Z,25
2019-05-18T14:28:31.424Z,25.4
2019-05-18T14:33:36.836Z,25.4
2019-05-18T14:38:41.749Z,25
2019-05-18T14:43:46.443Z,25.2
2019-05-18T14:48:51.407Z,25.1
2019-05-18T14:53:56.454Z,25.5
2019-05-18T14:59:01.355Z,25.6
2019-05-18T15:04:06.404Z,25.3
2019-05-18T15:09:11.370Z,25.3
2019-05-18T15:14:16.489Z,24.8
2019-05-18T15:19:21.393Z,25
2019-05-18T15:24:26.495Z,25.2
2019-05-18T15:29:31.395Z,25.3
2019-05-18T15:34:41.413Z,25.2
2019-05-18T15:39:51.434Z,25.3
2019-05-18T15:44:56.435Z,25.5
2019-05-18T15:50:01.415Z,25.2
2019-05-18T15:55:06.416Z,25
2019-05-18T16:05:06.511Z,25.1
2019-05-18T16:10:11.619Z,25.3
2019-05-18T16:15:16.540Z,25.3
2019-05-18T16:20:26.605Z,25
2019-05-18T16:30:31.848Z,25.4
2019-05-18T16:40:32.270Z,25.1
2019-05-18T16:45:37.137Z,25
2019-05-18T16:50:42.118Z,25.2
2019-05-18T16:55:52.139Z,25
2019-05-18T17:01:02.119Z,24.7
2019-05-18T17:06:07.114Z,24.6
2019-05-18T17:11:12.176Z,24.5
2019-05-18T17:16:17.091Z,24.5
2019-05-18T17:21:22.121Z,24.4
2019-05-18T17:26:32.074Z,24.2
2019-05-18T17:31:42.093Z,24.5
2019-05-18T17:36:47.075Z,24.4
2019-05-18T17:41:52.114Z,24.3
2019-05-18T17:46:57.119Z,24.1
2019-05-18T17:52:02.104Z,24.1
2019-05-18T17:57:08.754Z,24.3
2019-05-18T18:02:12.040Z,24.1
2019-05-18T18:07:17.125Z,24
2019-05-18T18:12:22.126Z,23.7
2019-05-18T18:17:27.037Z,23.9
2019-05-18T18:22:32.042Z,23.8
2019-05-18T18:27:37.101Z,23.4
2019-05-18T18:32:42.087Z,23.1
2019-05-18T18:37:52.115Z,23.1
2019-05-18T18:43:02.070Z,23.2
2019-05-18T18:48:07.285Z,22.8
2019-05-18T18:53:12.076Z,22.8
2019-05-18T18:58:17.160Z,23
2019-05-18T19:03:22.094Z,22.7
2019-05-18T19:08:32.079Z,22.8
2019-05-18T19:13:45.482Z,23
2019-05-18T19:18:47.162Z,23.3
2019-05-18T19:23:52.133Z,22.6
2019-05-18T19:28:57.062Z,23.2
2019-05-18T19:34:02.035Z,22.9
2019-05-18T19:39:12.099Z,23
2019-05-18T19:44:24.001Z,22.6
2019-05-18T19:49:27.391Z,22.4
2019-05-18T19:54:32.072Z,22
2019-05-18T19:59:37.047Z,22.1
2019-05-18T20:09:37.920Z,21.8
2019-05-18T20:14:42.970Z,21.9
2019-05-18T20:19:47.961Z,22
2019-05-18T20:24:57.923Z,21.6
2019-05-18T20:30:08.034Z,21.5
2019-05-18T20:35:12.935Z,21.2
2019-05-18T20:40:17.985Z,21.1
2019-05-18T20:45:22.946Z,21
2019-05-18T20:50:27.961Z,20.9
2019-05-18T20:55:37.923Z,20.8
2019-05-18T21:00:47.941Z,20.9
2019-05-18T21:05:52.942Z,20.7
2019-05-18T21:10:57.952Z,20.3
2019-05-18T21:16:02.939Z,20.2
2019-05-18T21:21:07.885Z,19.9
2019-05-18T21:26:17.909Z,19.8
2019-05-18T21:31:27.916Z,19.8
2019-05-18T21:36:32.913Z,20.2
2019-05-18T21:41:37.894Z,20.2
2019-05-18T21:46:42.920Z,20.4
2019-05-18T21:51:48.167Z,20.2
2019-05-18T21:56:57.896Z,20
2019-05-18T22:02:08.108Z,19.6
2019-05-18T22:07:12.892Z,19.3
2019-05-18T22:12:17.908Z,19.6
2019-05-18T22:17:22.962Z,19.5
2019-05-18T22:22:27.938Z,19.5
2019-05-18T22:27:37.944Z,19.5
2019-05-18T22:32:47.885Z,19.4
2019-05-18T22:37:53.096Z,19.4
2019-05-18T22:42:57.932Z,19
2019-05-18T22:48:02.984Z,19
2019-05-18T22:58:03.059Z,19
2019-05-18T23:03:08.085Z,18.9
2019-05-18T23:08:13.094Z,18.7
2019-05-18T23:13:23.073Z,18.6
2019-05-18T23:18:33.040Z,18.5
2019-05-18T23:23:38.145Z,18.5
2019-05-18T23:28:43.048Z,18.6
2019-05-18T23:33:48.040Z,18.6
2019-05-18T23:38:53.053Z,18.7
2019-05-18T23:44:03.028Z,18.7
2019-05-18T23:49:13.067Z,18.8
2019-05-18T23:54:18.042Z,19
2019-05-18T23:59:23.229Z,19.1
